sensor_id;sensor_type;location;lat;lon;timestamp;temperature;humidity
39675;DHT22;27790;50.840;4.386;2023-07-13T00:01:39;18.30;95.00
39675;DHT22;27790;50.840;4.386;2023-07-13T00:04:05;18.20;95.20
39675;DHT22;27790;50.840;4.386;2023-07-13T00:06:31;18.20;95.00
39675;DHT22;27790;50.840;4.386;2023-07-13T00:08:59;18.20;95.10
39675;DHT22;27790;50.840;4.386;2023-07-13T00:11:24;18.20;95.20
39675;DHT22;27790;50.840;4.386;2023-07-13T00:13:51;18.20;95.30
39675;DHT22;27790;50.840;4.386;2023-07-13T00:16:16;18.20;95.60
39675;DHT22;27790;50.840;4.386;2023-07-13T00:18:44;18.20;95.50
39675;DHT22;27790;50.840;4.386;2023-07-13T00:21:10;18.20;95.50
39675;DHT22;27790;50.840;4.386;2023-07-13T00:23:38;18.10;95.70
39675;DHT22;27790;50.840;4.386;2023-07-13T00:26:05;18.10;96.00
39675;DHT22;27790;50.840;4.386;2023-07-13T00:28:32;18.10;96.20
39675;DHT22;27790;50.840;4.386;2023-07-13T00:30:58;18.10;96.50
39675;DHT22;27790;50.840;4.386;2023-07-13T00:33:24;18.10;96.20
39675;DHT22;27790;50.840;4.386;2023-07-13T00:35:49;18.10;96.40
39675;DHT22;27790;50.840;4.386;2023-07-13T00:38:16;18.10;96.30
39675;DHT22;27790;50.840;4.386;2023-07-13T00:40:41;18.10;96.80
39675;DHT22;27790;50.840;4.386;2023-07-13T00:43:19;18.10;96.80
39675;DHT22;27790;50.840;4.386;2023-07-13T00:48:18;18.10;96.80
39675;DHT22;27790;50.840;4.386;2023-07-13T00:50:48;18.10;96.90
39675;DHT22;27790;50.840;4.386;2023-07-13T00:53:15;18.10;96.90
39675;DHT22;27790;50.840;4.386;2023-07-13T00:55:41;18.10;97.10
39675;DHT22;27790;50.840;4.386;2023-07-13T00:58:07;18.10;97.10
39675;DHT22;27790;50.840;4.386;2023-07-13T01:00:34;18.00;97.00
39675;DHT22;27790;50.840;4.386;2023-07-13T01:03:02;18.00;97.20
39675;DHT22;27790;50.840;4.386;2023-07-13T01:05:30;18.10;97.40
39675;DHT22;27790;50.840;4.386;2023-07-13T01:07:57;18.00;97.10
39675;DHT22;27790;50.840;4.386;2023-07-13T01:10:24;18.00;97.20
39675;DHT22;27790;50.840;4.386;2023-07-13T01:12:51;18.00;97.30
39675;DHT22;27790;50.840;4.386;2023-07-13T01:15:53;18.00;97.40
39675;DHT22;27790;50.840;4.386;2023-07-13T01:18:24;18.00;97.40
39675;DHT22;27790;50.840;4.386;2023-07-13T01:23:24;17.90;97.60
39675;DHT22;27790;50.840;4.386;2023-07-13T01:25:51;17.90;97.70
39675;DHT22;27790;50.840;4.386;2023-07-13T01:28:18;17.80;97.70
39675;DHT22;27790;50.840;4.386;2023-07-13T01:30:45;17.80;97.90
39675;DHT22;27790;50.840;4.386;2023-07-13T01:33:13;17.80;98.00
39675;DHT22;27790;50.840;4.386;2023-07-13T01:35:40;17.80;98.10
39675;DHT22;27790;50.840;4.386;2023-07-13T01:38:05;17.80;98.00
39675;DHT22;27790;50.840;4.386;2023-07-13T01:40:33;17.80;98.10
39675;DHT22;27790;50.840;4.386;2023-07-13T01:43:01;17.80;98.50
39675;DHT22;27790;50.840;4.386;2023-07-13T01:45:26;17.80;98.30
39675;DHT22;27790;50.840;4.386;2023-07-13T01:47:52;17.80;98.70
39675;DHT22;27790;50.840;4.386;2023-07-13T01:50:18;17.70;98.50
39675;DHT22;27790;50.840;4.386;2023-07-13T01:52:43;17.70;98.80
39675;DHT22;27790;50.840;4.386;2023-07-13T01:55:09;17.70;98.80
39675;DHT22;27790;50.840;4.386;2023-07-13T01:57:35;17.70;98.80
39675;DHT22;27790;50.840;4.386;2023-07-13T02:00:04;17.60;99.00
39675;DHT22;27790;50.840;4.386;2023-07-13T02:02:30;17.60;99.20
39675;DHT22;27790;50.840;4.386;2023-07-13T02:04:56;17.60;99.20
39675;DHT22;27790;50.840;4.386;2023-07-13T02:07:22;17.60;99.20
39675;DHT22;27790;50.840;4.386;2023-07-13T02:09:47;17.50;99.40
39675;DHT22;27790;50.840;4.386;2023-07-13T02:12:13;17.50;99.60
39675;DHT22;27790;50.840;4.386;2023-07-13T02:14:38;17.60;99.60
39675;DHT22;27790;50.840;4.386;2023-07-13T02:17:05;17.50;99.80
39675;DHT22;27790;50.840;4.386;2023-07-13T02:19:30;17.50;99.90
39675;DHT22;27790;50.840;4.386;2023-07-13T02:21:56;17.50;99.90
39675;DHT22;27790;50.840;4.386;2023-07-13T02:24:22;17.50;99.90
39675;DHT22;27790;50.840;4.386;2023-07-13T02:26:47;17.50;99.90
39675;DHT22;27790;50.840;4.386;2023-07-13T02:29:13;17.50;99.90
39675;DHT22;27790;50.840;4.386;2023-07-13T02:31:39;17.50;99.90
39675;DHT22;27790;50.840;4.386;2023-07-13T02:34:04;17.50;99.90
39675;DHT22;27790;50.840;4.386;2023-07-13T02:36:31;17.50;99.90
39675;DHT22;27790;50.840;4.386;2023-07-13T02:39:01;17.40;99.90
39675;DHT22;27790;50.840;4.386;2023-07-13T02:41:28;17.40;99.90
39675;DHT22;27790;50.840;4.386;2023-07-13T02:43:54;17.40;99.90
39675;DHT22;27790;50.840;4.386;2023-07-13T02:46:19;17.40;99.90
39675;DHT22;27790;50.840;4.386;2023-07-13T02:48:45;17.40;99.90
39675;DHT22;27790;50.840;4.386;2023-07-13T02:51:11;17.40;99.90
39675;DHT22;27790;50.840;4.386;2023-07-13T02:53:37;17.40;99.90
39675;DHT22;27790;50.840;4.386;2023-07-13T02:56:04;17.40;99.90
39675;DHT22;27790;50.840;4.386;2023-07-13T02:58:30;17.30;99.90
39675;DHT22;27790;50.840;4.386;2023-07-13T03:00:56;17.30;99.90
39675;DHT22;27790;50.840;4.386;2023-07-13T03:03:23;17.30;99.90
39675;DHT22;27790;50.840;4.386;2023-07-13T03:05:58;17.30;99.90
39675;DHT22;27790;50.840;4.386;2023-07-13T03:08:25;17.20;99.90
39675;DHT22;27790;50.840;4.386;2023-07-13T03:11:02;17.20;99.90
39675;DHT22;27790;50.840;4.386;2023-07-13T03:13:28;17.20;99.90
39675;DHT22;27790;50.840;4.386;2023-07-13T03:15:54;17.20;99.90
39675;DHT22;27790;50.840;4.386;2023-07-13T03:18:19;17.20;99.90
39675;DHT22;27790;50.840;4.386;2023-07-13T03:20:45;17.20;99.90
39675;DHT22;27790;50.840;4.386;2023-07-13T03:23:11;17.20;99.90
39675;DHT22;27790;50.840;4.386;2023-07-13T03:25:36;17.20;99.90
39675;DHT22;27790;50.840;4.386;2023-07-13T03:28:02;17.20;99.90
39675;DHT22;27790;50.840;4.386;2023-07-13T03:30:27;17.20;99.90
39675;DHT22;27790;50.840;4.386;2023-07-13T03:32:53;17.10;99.90
39675;DHT22;27790;50.840;4.386;2023-07-13T03:35:18;17.10;99.90
39675;DHT22;27790;50.840;4.386;2023-07-13T03:37:44;17.10;99.90
39675;DHT22;27790;50.840;4.386;2023-07-13T03:40:11;17.10;99.90
39675;DHT22;27790;50.840;4.386;2023-07-13T03:42:37;17.10;99.90
39675;DHT22;27790;50.840;4.386;2023-07-13T03:45:03;17.20;99.90
39675;DHT22;27790;50.840;4.386;2023-07-13T03:47:29;17.20;99.90
39675;DHT22;27790;50.840;4.386;2023-07-13T03:49:54;17.30;99.90
39675;DHT22;27790;50.840;4.386;2023-07-13T03:52:20;17.40;99.90
39675;DHT22;27790;50.840;4.386;2023-07-13T03:54:46;17.40;99.90
39675;DHT22;27790;50.840;4.386;2023-07-13T03:57:11;17.50;99.90
39675;DHT22;27790;50.840;4.386;2023-07-13T03:59:37;17.70;99.90
39675;DHT22;27790;50.840;4.386;2023-07-13T04:02:02;17.70;99.90
39675;DHT22;27790;50.840;4.386;2023-07-13T04:04:29;17.80;99.90
39675;DHT22;27790;50.840;4.386;2023-07-13T04:06:57;17.80;99.90
39675;DHT22;27790;50.840;4.386;2023-07-13T04:09:24;17.80;99.90
39675;DHT22;27790;50.840;4.386;2023-07-13T04:11:50;17.90;99.90
39675;DHT22;27790;50.840;4.386;2023-07-13T04:14:16;17.90;99.90
39675;DHT22;27790;50.840;4.386;2023-07-13T04:16:42;17.90;99.90
39675;DHT22;27790;50.840;4.386;2023-07-13T04:19:09;18.00;99.90
39675;DHT22;27790;50.840;4.386;2023-07-13T04:21:36;18.10;99.90
39675;DHT22;27790;50.840;4.386;2023-07-13T04:24:02;18.10;99.90
39675;DHT22;27790;50.840;4.386;2023-07-13T04:26:28;18.10;99.90
39675;DHT22;27790;50.840;4.386;2023-07-13T04:28:54;18.10;99.90
39675;DHT22;27790;50.840;4.386;2023-07-13T04:31:20;18.20;99.90
39675;DHT22;27790;50.840;4.386;2023-07-13T04:33:47;18.30;99.90
39675;DHT22;27790;50.840;4.386;2023-07-13T04:36:14;18.30;99.90
39675;DHT22;27790;50.840;4.386;2023-07-13T04:38:40;18.30;99.90
39675;DHT22;27790;50.840;4.386;2023-07-13T04:41:07;18.30;99.90
39675;DHT22;27790;50.840;4.386;2023-07-13T04:43:33;18.30;99.90
39675;DHT22;27790;50.840;4.386;2023-07-13T04:46:11;18.40;99.90
39675;DHT22;27790;50.840;4.386;2023-07-13T04:48:37;18.40;99.90
39675;DHT22;27790;50.840;4.386;2023-07-13T04:51:03;18.40;99.90
39675;DHT22;27790;50.840;4.386;2023-07-13T04:53:29;18.50;99.90
39675;DHT22;27790;50.840;4.386;2023-07-13T04:55:55;18.50;99.90
39675;DHT22;27790;50.840;4.386;2023-07-13T04:58:22;18.60;99.90
39675;DHT22;27790;50.840;4.386;2023-07-13T05:00:48;18.60;99.90
39675;DHT22;27790;50.840;4.386;2023-07-13T05:03:14;18.60;99.90
39675;DHT22;27790;50.840;4.386;2023-07-13T05:05:40;18.60;99.90
39675;DHT22;27790;50.840;4.386;2023-07-13T05:08:05;18.60;99.90
39675;DHT22;27790;50.840;4.386;2023-07-13T05:10:33;18.60;99.90
39675;DHT22;27790;50.840;4.386;2023-07-13T05:12:58;18.60;99.90
39675;DHT22;27790;50.840;4.386;2023-07-13T05:15:24;18.60;99.90
39675;DHT22;27790;50.840;4.386;2023-07-13T05:17:50;18.60;99.90
39675;DHT22;27790;50.840;4.386;2023-07-13T05:20:18;18.60;99.90
39675;DHT22;27790;50.840;4.386;2023-07-13T05:22:44;18.60;99.90
39675;DHT22;27790;50.840;4.386;2023-07-13T05:25:12;18.70;99.90
39675;DHT22;27790;50.840;4.386;2023-07-13T05:27:38;18.60;99.90
39675;DHT22;27790;50.840;4.386;2023-07-13T05:30:05;18.70;99.90
39675;DHT22;27790;50.840;4.386;2023-07-13T05:32:31;18.80;99.90
39675;DHT22;27790;50.840;4.386;2023-07-13T05:34:56;18.80;99.90
39675;DHT22;27790;50.840;4.386;2023-07-13T05:37:22;18.90;99.90
39675;DHT22;27790;50.840;4.386;2023-07-13T05:39:47;18.90;99.90
39675;DHT22;27790;50.840;4.386;2023-07-13T05:42:13;18.90;99.90
39675;DHT22;27790;50.840;4.386;2023-07-13T05:44:39;18.90;99.90
39675;DHT22;27790;50.840;4.386;2023-07-13T05:47:05;18.80;99.90
39675;DHT22;27790;50.840;4.386;2023-07-13T05:49:31;18.90;99.90
39675;DHT22;27790;50.840;4.386;2023-07-13T05:51:57;18.90;99.90
39675;DHT22;27790;50.840;4.386;2023-07-13T05:54:22;19.00;99.90
39675;DHT22;27790;50.840;4.386;2023-07-13T05:56:48;19.00;99.90
39675;DHT22;27790;50.840;4.386;2023-07-13T05:59:13;19.10;99.90
39675;DHT22;27790;50.840;4.386;2023-07-13T06:01:39;19.10;99.90
39675;DHT22;27790;50.840;4.386;2023-07-13T06:04:06;19.10;99.90
39675;DHT22;27790;50.840;4.386;2023-07-13T06:06:32;19.20;99.90
39675;DHT22;27790;50.840;4.386;2023-07-13T06:08:58;19.20;99.90
39675;DHT22;27790;50.840;4.386;2023-07-13T06:11:25;19.30;99.90
39675;DHT22;27790;50.840;4.386;2023-07-13T06:13:51;19.30;99.90
39675;DHT22;27790;50.840;4.386;2023-07-13T06:16:17;19.40;99.90
39675;DHT22;27790;50.840;4.386;2023-07-13T06:18:43;19.50;99.90
39675;DHT22;27790;50.840;4.386;2023-07-13T06:21:10;19.50;99.90
39675;DHT22;27790;50.840;4.386;2023-07-13T06:23:36;19.60;99.80
39675;DHT22;27790;50.840;4.386;2023-07-13T06:26:03;19.70;99.90
39675;DHT22;27790;50.840;4.386;2023-07-13T06:28:29;19.80;99.70
39675;DHT22;27790;50.840;4.386;2023-07-13T06:30:57;19.90;99.40
39675;DHT22;27790;50.840;4.386;2023-07-13T06:33:22;20.00;99.40
39675;DHT22;27790;50.840;4.386;2023-07-13T06:35:48;20.10;99.20
39675;DHT22;27790;50.840;4.386;2023-07-13T06:38:14;20.10;99.30
39675;DHT22;27790;50.840;4.386;2023-07-13T06:40:39;20.10;99.20
39675;DHT22;27790;50.840;4.386;2023-07-13T06:43:05;20.20;99.00
39675;DHT22;27790;50.840;4.386;2023-07-13T06:45:35;20.30;98.60
39675;DHT22;27790;50.840;4.386;2023-07-13T06:48:01;20.50;98.80
39675;DHT22;27790;50.840;4.386;2023-07-13T06:50:26;20.60;98.20
39675;DHT22;27790;50.840;4.386;2023-07-13T06:52:52;20.60;98.30
39675;DHT22;27790;50.840;4.386;2023-07-13T06:55:18;20.80;98.00
39675;DHT22;27790;50.840;4.386;2023-07-13T06:57:43;20.90;98.30
39675;DHT22;27790;50.840;4.386;2023-07-13T07:00:09;21.10;98.00
39675;DHT22;27790;50.840;4.386;2023-07-13T07:02:35;21.10;97.20
39675;DHT22;27790;50.840;4.386;2023-07-13T07:05:01;21.20;97.40
39675;DHT22;27790;50.840;4.386;2023-07-13T07:07:26;21.20;97.10
39675;DHT22;27790;50.840;4.386;2023-07-13T07:09:52;21.20;97.30
39675;DHT22;27790;50.840;4.386;2023-07-13T07:12:17;21.20;97.00
39675;DHT22;27790;50.840;4.386;2023-07-13T07:14:43;21.20;96.80
39675;DHT22;27790;50.840;4.386;2023-07-13T07:17:09;21.30;96.80
39675;DHT22;27790;50.840;4.386;2023-07-13T07:19:35;21.60;96.40
39675;DHT22;27790;50.840;4.386;2023-07-13T07:22:01;21.90;95.90
39675;DHT22;27790;50.840;4.386;2023-07-13T07:24:26;22.10;95.70
39675;DHT22;27790;50.840;4.386;2023-07-13T07:26:52;22.20;95.20
39675;DHT22;27790;50.840;4.386;2023-07-13T07:29:17;22.30;95.30
39675;DHT22;27790;50.840;4.386;2023-07-13T07:31:43;22.70;94.90
39675;DHT22;27790;50.840;4.386;2023-07-13T07:34:09;23.30;94.10
39675;DHT22;27790;50.840;4.386;2023-07-13T07:36:34;23.40;93.70
39675;DHT22;27790;50.840;4.386;2023-07-13T07:39:00;24.20;93.10
39675;DHT22;27790;50.840;4.386;2023-07-13T07:41:25;24.70;91.70
39675;DHT22;27790;50.840;4.386;2023-07-13T07:43:51;24.90;91.70
39675;DHT22;27790;50.840;4.386;2023-07-13T07:46:17;25.20;91.30
39675;DHT22;27790;50.840;4.386;2023-07-13T07:48:42;25.10;90.50
39675;DHT22;27790;50.840;4.386;2023-07-13T07:51:08;24.50;91.10
39675;DHT22;27790;50.840;4.386;2023-07-13T07:53:33;24.50;91.30
39675;DHT22;27790;50.840;4.386;2023-07-13T07:55:59;24.90;90.70
39675;DHT22;27790;50.840;4.386;2023-07-13T07:58:24;25.50;90.90
39675;DHT22;27790;50.840;4.386;2023-07-13T08:00:50;25.70;90.00
39675;DHT22;27790;50.840;4.386;2023-07-13T08:03:16;26.00;89.70
39675;DHT22;27790;50.840;4.386;2023-07-13T08:05:41;26.10;88.20
39675;DHT22;27790;50.840;4.386;2023-07-13T08:08:07;26.00;88.10
39675;DHT22;27790;50.840;4.386;2023-07-13T08:10:35;26.00;88.20
39675;DHT22;27790;50.840;4.386;2023-07-13T08:13:02;26.20;87.20
39675;DHT22;27790;50.840;4.386;2023-07-13T08:15:28;26.00;87.90
39675;DHT22;27790;50.840;4.386;2023-07-13T08:17:53;25.80;88.20
39675;DHT22;27790;50.840;4.386;2023-07-13T08:20:19;25.80;87.90
39675;DHT22;27790;50.840;4.386;2023-07-13T08:22:44;25.30;88.40
39675;DHT22;27790;50.840;4.386;2023-07-13T08:25:10;25.10;89.20
39675;DHT22;27790;50.840;4.386;2023-07-13T08:27:36;24.70;89.50
39675;DHT22;27790;50.840;4.386;2023-07-13T08:30:01;24.40;90.50
39675;DHT22;27790;50.840;4.386;2023-07-13T08:32:27;24.10;90.50
39675;DHT22;27790;50.840;4.386;2023-07-13T08:34:53;24.40;90.20
39675;DHT22;27790;50.840;4.386;2023-07-13T08:37:19;24.40;90.60
39675;DHT22;27790;50.840;4.386;2023-07-13T08:39:45;24.20;90.20
39675;DHT22;27790;50.840;4.386;2023-07-13T08:42:26;24.10;90.70
39675;DHT22;27790;50.840;4.386;2023-07-13T08:48:03;24.80;90.40
39675;DHT22;27790;50.840;4.386;2023-07-13T08:50:37;25.50;89.50
39675;DHT22;27790;50.840;4.386;2023-07-13T08:53:04;25.90;88.80
39675;DHT22;27790;50.840;4.386;2023-07-13T08:55:31;26.60;86.80
39675;DHT22;27790;50.840;4.386;2023-07-13T08:58:09;27.50;83.40
39675;DHT22;27790;50.840;4.386;2023-07-13T09:00:50;28.00;83.30
39675;DHT22;27790;50.840;4.386;2023-07-13T09:03:23;28.10;81.50
39675;DHT22;27790;50.840;4.386;2023-07-13T09:05:58;27.70;82.50
39675;DHT22;27790;50.840;4.386;2023-07-13T09:11:36;27.90;80.40
39675;DHT22;27790;50.840;4.386;2023-07-13T09:14:19;28.30;80.70
39675;DHT22;27790;50.840;4.386;2023-07-13T09:16:51;28.20;79.90
39675;DHT22;27790;50.840;4.386;2023-07-13T09:19:24;28.10;79.90
39675;DHT22;27790;50.840;4.386;2023-07-13T09:21:52;28.60;79.10
39675;DHT22;27790;50.840;4.386;2023-07-13T09:24:47;28.90;78.90
39675;DHT22;27790;50.840;4.386;2023-07-13T09:27:19;28.00;79.20
39675;DHT22;27790;50.840;4.386;2023-07-13T09:29:54;27.80;80.40
39675;DHT22;27790;50.840;4.386;2023-07-13T09:32:23;27.60;80.60
39675;DHT22;27790;50.840;4.386;2023-07-13T09:34:51;27.10;80.30
39675;DHT22;27790;50.840;4.386;2023-07-13T09:37:18;27.00;81.30
39675;DHT22;27790;50.840;4.386;2023-07-13T09:39:44;26.80;81.80
39675;DHT22;27790;50.840;4.386;2023-07-13T09:44:51;26.40;81.80
39675;DHT22;27790;50.840;4.386;2023-07-13T09:47:19;26.00;82.30
39675;DHT22;27790;50.840;4.386;2023-07-13T09:49:48;25.80;83.40
39675;DHT22;27790;50.840;4.386;2023-07-13T09:52:18;26.10;83.10
39675;DHT22;27790;50.840;4.386;2023-07-13T09:54:46;26.70;82.80
39675;DHT22;27790;50.840;4.386;2023-07-13T09:57:19;27.20;83.70
39675;DHT22;27790;50.840;4.386;2023-07-13T09:59:49;27.30;81.60
39675;DHT22;27790;50.840;4.386;2023-07-13T10:02:30;26.60;82.00
39675;DHT22;27790;50.840;4.386;2023-07-13T10:05:00;26.30;81.80
39675;DHT22;27790;50.840;4.386;2023-07-13T10:07:26;26.10;81.70
39675;DHT22;27790;50.840;4.386;2023-07-13T10:09:53;26.10;83.60
39675;DHT22;27790;50.840;4.386;2023-07-13T10:12:20;26.00;82.30
39675;DHT22;27790;50.840;4.386;2023-07-13T10:14:45;25.80;82.10
39675;DHT22;27790;50.840;4.386;2023-07-13T10:17:14;25.50;82.60
39675;DHT22;27790;50.840;4.386;2023-07-13T10:19:42;25.50;83.60
39675;DHT22;27790;50.840;4.386;2023-07-13T10:25:21;25.40;82.60
39675;DHT22;27790;50.840;4.386;2023-07-13T10:27:50;25.40;83.30
39675;DHT22;27790;50.840;4.386;2023-07-13T10:30:29;25.50;83.90
39675;DHT22;27790;50.840;4.386;2023-07-13T10:33:01;25.60;82.80
39675;DHT22;27790;50.840;4.386;2023-07-13T10:35:27;25.80;81.70
39675;DHT22;27790;50.840;4.386;2023-07-13T10:40:37;26.00;81.70
39675;DHT22;27790;50.840;4.386;2023-07-13T10:43:13;25.90;82.50
39675;DHT22;27790;50.840;4.386;2023-07-13T10:45:40;25.80;81.70
39675;DHT22;27790;50.840;4.386;2023-07-13T10:48:09;25.60;82.30
39675;DHT22;27790;50.840;4.386;2023-07-13T10:50:37;25.30;82.40
39675;DHT22;27790;50.840;4.386;2023-07-13T10:53:32;25.10;82.80
39675;DHT22;27790;50.840;4.386;2023-07-13T10:56:04;25.00;83.00
39675;DHT22;27790;50.840;4.386;2023-07-13T10:58:41;24.90;82.90
39675;DHT22;27790;50.840;4.386;2023-07-13T11:06:41;25.10;83.30
39675;DHT22;27790;50.840;4.386;2023-07-13T11:09:40;25.30;82.10
39675;DHT22;27790;50.840;4.386;2023-07-13T11:12:09;25.30;82.80
39675;DHT22;27790;50.840;4.386;2023-07-13T11:14:36;25.50;82.00
39675;DHT22;27790;50.840;4.386;2023-07-13T11:20:33;25.60;81.30
39675;DHT22;27790;50.840;4.386;2023-07-13T11:25:37;25.60;81.40
39675;DHT22;27790;50.840;4.386;2023-07-13T11:28:12;25.70;82.00
39675;DHT22;27790;50.840;4.386;2023-07-13T11:30:40;25.90;81.40
39675;DHT22;27790;50.840;4.386;2023-07-13T11:33:22;26.00;80.30
39675;DHT22;27790;50.840;4.386;2023-07-13T11:38:36;25.70;80.70
39675;DHT22;27790;50.840;4.386;2023-07-13T11:41:14;25.50;81.30
39675;DHT22;27790;50.840;4.386;2023-07-13T11:43:41;25.20;82.20
39675;DHT22;27790;50.840;4.386;2023-07-13T11:46:24;24.90;81.40
39675;DHT22;27790;50.840;4.386;2023-07-13T11:48:51;24.60;81.90
39675;DHT22;27790;50.840;4.386;2023-07-13T11:51:22;24.60;81.80
39675;DHT22;27790;50.840;4.386;2023-07-13T11:53:51;24.40;83.00
39675;DHT22;27790;50.840;4.386;2023-07-13T11:56:17;24.40;84.10
39675;DHT22;27790;50.840;4.386;2023-07-13T11:58:43;24.30;83.60
39675;DHT22;27790;50.840;4.386;2023-07-13T12:01:25;24.20;83.80
39675;DHT22;27790;50.840;4.386;2023-07-13T12:03:53;24.20;85.00
39675;DHT22;27790;50.840;4.386;2023-07-13T12:06:31;24.10;84.40
39675;DHT22;27790;50.840;4.386;2023-07-13T12:09:00;23.80;84.30
39675;DHT22;27790;50.840;4.386;2023-07-13T12:11:27;23.70;83.70
39675;DHT22;27790;50.840;4.386;2023-07-13T12:13:53;23.70;85.80
39675;DHT22;27790;50.840;4.386;2023-07-13T12:16:29;23.70;85.40
39675;DHT22;27790;50.840;4.386;2023-07-13T12:18:56;23.70;84.60
39675;DHT22;27790;50.840;4.386;2023-07-13T12:21:30;23.80;84.60
39675;DHT22;27790;50.840;4.386;2023-07-13T12:23:56;23.90;85.00
39675;DHT22;27790;50.840;4.386;2023-07-13T12:26:22;24.00;84.30
39675;DHT22;27790;50.840;4.386;2023-07-13T12:28:51;24.00;84.50
39675;DHT22;27790;50.840;4.386;2023-07-13T12:31:44;24.00;83.90
39675;DHT22;27790;50.840;4.386;2023-07-13T12:34:11;23.50;83.10
39675;DHT22;27790;50.840;4.386;2023-07-13T12:36:49;23.00;85.10
39675;DHT22;27790;50.840;4.386;2023-07-13T12:41:51;21.80;91.90
39675;DHT22;27790;50.840;4.386;2023-07-13T12:44:27;21.20;94.00
39675;DHT22;27790;50.840;4.386;2023-07-13T12:47:03;20.70;95.00
39675;DHT22;27790;50.840;4.386;2023-07-13T12:49:31;20.60;96.00
39675;DHT22;27790;50.840;4.386;2023-07-13T12:52:02;20.60;97.10
39675;DHT22;27790;50.840;4.386;2023-07-13T12:54:29;20.70;97.30
39675;DHT22;27790;50.840;4.386;2023-07-13T12:56:57;20.60;97.50
39675;DHT22;27790;50.840;4.386;2023-07-13T12:59:26;20.50;97.80
39675;DHT22;27790;50.840;4.386;2023-07-13T13:01:54;20.50;97.90
39675;DHT22;27790;50.840;4.386;2023-07-13T13:04:20;20.60;98.30
39675;DHT22;27790;50.840;4.386;2023-07-13T13:06:47;20.60;98.20
39675;DHT22;27790;50.840;4.386;2023-07-13T13:09:15;20.90;98.50
39675;DHT22;27790;50.840;4.386;2023-07-13T13:11:41;21.10;98.60
39675;DHT22;27790;50.840;4.386;2023-07-13T13:14:08;21.40;96.50
39675;DHT22;27790;50.840;4.386;2023-07-13T13:16:54;21.80;95.50
39675;DHT22;27790;50.840;4.386;2023-07-13T13:19:25;22.20;94.30
39675;DHT22;27790;50.840;4.386;2023-07-13T13:21:53;22.50;95.70
39675;DHT22;27790;50.840;4.386;2023-07-13T13:24:22;22.60;95.50
39675;DHT22;27790;50.840;4.386;2023-07-13T13:26:50;22.60;95.80
39675;DHT22;27790;50.840;4.386;2023-07-13T13:29:19;22.70;95.60
39675;DHT22;27790;50.840;4.386;2023-07-13T13:31:45;22.70;94.70
39675;DHT22;27790;50.840;4.386;2023-07-13T13:34:12;22.80;93.20
39675;DHT22;27790;50.840;4.386;2023-07-13T13:36:40;23.00;94.60
39675;DHT22;27790;50.840;4.386;2023-07-13T13:41:53;23.40;93.00
39675;DHT22;27790;50.840;4.386;2023-07-13T13:44:20;23.60;93.70
39675;DHT22;27790;50.840;4.386;2023-07-13T13:46:48;23.80;93.90
39675;DHT22;27790;50.840;4.386;2023-07-13T13:49:23;23.90;92.90
39675;DHT22;27790;50.840;4.386;2023-07-13T13:51:50;23.90;90.90
39675;DHT22;27790;50.840;4.386;2023-07-13T13:54:17;24.00;91.20
39675;DHT22;27790;50.840;4.386;2023-07-13T13:56:44;24.10;92.00
39675;DHT22;27790;50.840;4.386;2023-07-13T13:59:10;24.10;90.80
39675;DHT22;27790;50.840;4.386;2023-07-13T14:01:36;24.10;91.30
39675;DHT22;27790;50.840;4.386;2023-07-13T14:04:04;24.10;90.90
39675;DHT22;27790;50.840;4.386;2023-07-13T14:06:31;24.10;91.00
39675;DHT22;27790;50.840;4.386;2023-07-13T14:08:57;24.10;90.90
39675;DHT22;27790;50.840;4.386;2023-07-13T14:11:23;24.00;91.20
39675;DHT22;27790;50.840;4.386;2023-07-13T14:13:52;23.90;90.60
39675;DHT22;27790;50.840;4.386;2023-07-13T14:16:21;24.00;91.10
39675;DHT22;27790;50.840;4.386;2023-07-13T14:18:48;23.90;90.70
39675;DHT22;27790;50.840;4.386;2023-07-13T14:21:15;23.90;90.50
39675;DHT22;27790;50.840;4.386;2023-07-13T14:23:42;23.90;90.70
39675;DHT22;27790;50.840;4.386;2023-07-13T14:26:17;24.00;91.10
39675;DHT22;27790;50.840;4.386;2023-07-13T14:28:49;23.90;90.80
39675;DHT22;27790;50.840;4.386;2023-07-13T14:31:16;23.90;90.70
39675;DHT22;27790;50.840;4.386;2023-07-13T14:33:43;23.90;90.50
39675;DHT22;27790;50.840;4.386;2023-07-13T14:38:47;23.90;90.20
39675;DHT22;27790;50.840;4.386;2023-07-13T14:41:13;24.00;89.10
39675;DHT22;27790;50.840;4.386;2023-07-13T14:43:39;24.20;89.70
39675;DHT22;27790;50.840;4.386;2023-07-13T14:46:04;24.20;87.60
39675;DHT22;27790;50.840;4.386;2023-07-13T14:48:30;24.30;87.80
39675;DHT22;27790;50.840;4.386;2023-07-13T14:50:57;24.40;87.50
39675;DHT22;27790;50.840;4.386;2023-07-13T14:53:25;24.40;86.70
39675;DHT22;27790;50.840;4.386;2023-07-13T14:55:52;24.50;87.10
39675;DHT22;27790;50.840;4.386;2023-07-13T14:58:17;24.60;87.10
39675;DHT22;27790;50.840;4.386;2023-07-13T15:00:43;24.50;87.60
39675;DHT22;27790;50.840;4.386;2023-07-13T15:03:20;24.40;87.70
39675;DHT22;27790;50.840;4.386;2023-07-13T15:05:49;24.40;87.10
39675;DHT22;27790;50.840;4.386;2023-07-13T15:08:15;24.40;85.60
39675;DHT22;27790;50.840;4.386;2023-07-13T15:10:41;24.40;87.40
39675;DHT22;27790;50.840;4.386;2023-07-13T15:13:18;24.40;87.60
39675;DHT22;27790;50.840;4.386;2023-07-13T15:15:46;24.40;85.60
39675;DHT22;27790;50.840;4.386;2023-07-13T15:18:14;24.40;87.20
39675;DHT22;27790;50.840;4.386;2023-07-13T15:20:43;24.40;87.00
39675;DHT22;27790;50.840;4.386;2023-07-13T15:23:11;24.40;87.30
39675;DHT22;27790;50.840;4.386;2023-07-13T15:25:37;24.40;86.10
39675;DHT22;27790;50.840;4.386;2023-07-13T15:28:03;24.40;84.20
39675;DHT22;27790;50.840;4.386;2023-07-13T15:30:31;24.40;85.50
39675;DHT22;27790;50.840;4.386;2023-07-13T15:33:05;24.40;83.90
39675;DHT22;27790;50.840;4.386;2023-07-13T15:35:35;24.30;84.20
39675;DHT22;27790;50.840;4.386;2023-07-13T15:38:00;24.30;84.50
39675;DHT22;27790;50.840;4.386;2023-07-13T15:40:28;24.40;84.40
39675;DHT22;27790;50.840;4.386;2023-07-13T15:42:53;24.40;83.80
39675;DHT22;27790;50.840;4.386;2023-07-13T15:45:23;24.50;83.10
39675;DHT22;27790;50.840;4.386;2023-07-13T15:47:53;24.60;83.20
39675;DHT22;27790;50.840;4.386;2023-07-13T15:50:22;24.70;83.00
39675;DHT22;27790;50.840;4.386;2023-07-13T15:52:53;24.60;83.60
39675;DHT22;27790;50.840;4.386;2023-07-13T15:55:20;24.60;84.10
39675;DHT22;27790;50.840;4.386;2023-07-13T15:57:51;24.40;84.20
39675;DHT22;27790;50.840;4.386;2023-07-13T16:00:23;24.50;83.70
39675;DHT22;27790;50.840;4.386;2023-07-13T16:02:50;24.40;82.20
39675;DHT22;27790;50.840;4.386;2023-07-13T16:05:17;24.40;82.30
39675;DHT22;27790;50.840;4.386;2023-07-13T16:07:44;24.50;80.60
39675;DHT22;27790;50.840;4.386;2023-07-13T16:10:15;24.40;79.80
39675;DHT22;27790;50.840;4.386;2023-07-13T16:12:41;24.30;79.60
39675;DHT22;27790;50.840;4.386;2023-07-13T16:15:15;24.30;78.70
39675;DHT22;27790;50.840;4.386;2023-07-13T16:17:43;24.10;79.70